Huvudsida
METAR-TAF:

METAR-TAF

Flygplatser :

Williams Field, Antarktis

latitud: 77-52S, longitud: 166-58E, höjd: 8 m

Aktuellt väderrapport

Denna rapport gjordes för 16 minuter sedan, klockan 16:55 UTC
Vind 18 kt från ost/sydost
Temperatur -24°C
Fuktighet 69%
Tryck 989 hPa
Sikt: 1500 m
Spridda moln på en höjd av 100 ft
Mulet på en höjd av 21000 ft
torrdis

METAR: NZCM 071655Z AUTO 11018KT 1500 HZ SCT001 OVC210 M24/M28 A2920 RMK AO2 SLP894 T12441278 $

Tid: 17:11 (17:11 UTC)


TAF: saknas

Aktuella väderrapporter och prognoser från 4000 flygplatser (METAR- och TAF-rapporter).

De tillgängliga stationerna syns som gula och röda prickar på kartan.

För musen över prickarna för att se namnen på stationerna.

Klicka sedan för att få väderrapporter och prognoser.

För att ändra kartan: Klicka på de gröna knapparna med ett svart kors på för att zooma in; den gröna knappen med ett streck på för att zooma ut; eller på de gröna pilarna för angränsande kartor.


METAR-TAF: